Time;durP1;ratioP1;P1;durP2;ratioP2;P2;SDS_P1;SDS_P2;PMS_P1;PMS_P2;Temp;Humidity;BMP_temperature;BMP_pressure;BME280_temperature;BME280_humidity;BME280_pressure;Samples;Min_cycle;Max_cycle;Signal;HPM_P1;HPM_P2
2022/12/18 00:00:10;;;;;;;17.63;8.63;;;-7.70;99.90;;;;;;4144104;28;20281;-70
2022/12/18 00:02:10;;;;;;;26.88;10.82;;;-7.60;99.90;;;;;;4131864;28;20213;-69
2022/12/18 00:04:22;;;;;;;15.97;8.40;;;-7.70;99.90;;;;;;4131034;28;20186;-66
2022/12/18 00:06:25;;;;;;;16.90;8.48;;;-7.50;99.90;;;;;;4130846;28;20252;-70
2022/12/18 00:08:26;;;;;;;25.20;10.55;;;-7.60;99.90;;;;;;4131265;28;20205;-69
2022/12/18 00:10:28;;;;;;;22.37;10.43;;;-7.80;99.90;;;;;;4136186;28;20203;-69
2022/12/18 00:12:29;;;;;;;21.65;9.27;;;-7.80;99.90;;;;;;4147284;28;20182;-69
2022/12/18 00:14:30;;;;;;;21.87;10.83;;;-7.80;99.90;;;;;;4114153;28;20270;-69
2022/12/18 00:16:32;;;;;;;22.80;9.03;;;-7.80;99.90;;;;;;4147782;28;20287;-68
2022/12/18 00:18:33;;;;;;;25.13;10.75;;;-7.80;99.90;;;;;;4128414;28;20198;-68
2022/12/18 00:20:39;;;;;;;28.83;10.70;;;-7.80;99.90;;;;;;4132732;28;20276;-68
2022/12/18 00:22:40;;;;;;;35.45;13.20;;;-7.90;99.90;;;;;;4132887;28;20700;-68
2022/12/18 00:24:40;;;;;;;21.50;9.60;;;-7.90;99.90;;;;;;4115901;28;20183;-68
2022/12/18 00:26:41;;;;;;;27.50;9.37;;;-7.70;99.90;;;;;;4115126;28;20186;-68
2022/12/18 00:28:44;;;;;;;24.67;9.03;;;-7.60;99.90;;;;;;4100022;29;20188;-68
2022/12/18 00:30:44;;;;;;;26.63;10.33;;;-7.60;99.90;;;;;;4133245;28;20193;-68
2022/12/18 00:32:45;;;;;;;20.87;9.73;;;-7.60;99.90;;;;;;4115844;28;20428;-68
2022/12/18 00:34:46;;;;;;;25.57;10.37;;;-7.60;99.90;;;;;;4133168;28;20186;-67
2022/12/18 00:36:48;;;;;;;18.07;8.23;;;-7.50;99.90;;;;;;4132459;28;20181;-68
2022/12/18 00:38:49;;;;;;;16.98;8.10;;;-7.50;99.90;;;;;;4132968;28;20190;-71
2022/12/18 00:40:50;;;;;;;20.13;9.27;;;-7.50;99.90;;;;;;4099132;29;20576;-71
2022/12/18 00:42:56;;;;;;;21.07;8.77;;;-7.60;99.90;;;;;;4109262;28;20260;-71
2022/12/18 00:44:57;;;;;;;21.10;9.30;;;-7.60;99.90;;;;;;4132719;28;20657;-71
2022/12/18 00:46:58;;;;;;;14.07;8.90;;;-7.60;99.90;;;;;;4114603;28;20218;-71
2022/12/18 00:48:59;;;;;;;17.67;8.85;;;-7.60;99.90;;;;;;4115278;28;20269;-71
2022/12/18 00:51:00;;;;;;;18.50;8.73;;;-7.60;99.90;;;;;;4115183;28;20210;-70
2022/12/18 00:53:00;;;;;;;20.57;9.60;;;-7.60;99.90;;;;;;4099250;29;20697;-70
2022/12/18 00:55:01;;;;;;;20.77;10.00;;;-7.60;99.90;;;;;;4115026;28;20191;-71
2022/12/18 00:57:02;;;;;;;28.00;10.87;;;-7.50;99.90;;;;;;4114709;28;20308;-71
2022/12/18 00:59:03;;;;;;;16.10;7.87;;;-7.50;99.90;;;;;;4132764;28;20195;-71
2022/12/18 01:01:05;;;;;;;15.37;7.67;;;-7.30;99.90;;;;;;4132590;28;20880;-71
2022/12/18 01:03:06;;;;;;;26.02;9.57;;;-7.40;99.90;;;;;;4115258;28;20441;-71
2022/12/18 01:05:09;;;;;;;20.67;9.20;;;-7.40;99.90;;;;;;4098909;29;20222;-71
2022/12/18 01:07:10;;;;;;;17.05;7.43;;;-7.50;99.90;;;;;;4114485;28;21254;-70
2022/12/18 01:09:11;;;;;;;20.47;9.00;;;-7.40;99.90;;;;;;4115024;28;20285;-70
2022/12/18 01:11:18;;;;;;;30.03;10.33;;;-7.50;99.90;;;;;;4114964;28;20187;-70
2022/12/18 01:13:19;;;;;;;22.83;9.30;;;-7.40;99.90;;;;;;4098725;28;20661;-71
2022/12/18 01:15:20;;;;;;;24.23;9.27;;;-7.30;99.90;;;;;;4114882;28;20426;-70
2022/12/18 01:17:21;;;;;;;26.05;10.18;;;-7.20;99.90;;;;;;4131381;28;20891;-72
2022/12/18 01:19:23;;;;;;;44.33;11.35;;;-7.10;99.90;;;;;;4132031;28;20407;-71
2022/12/18 01:21:24;;;;;;;16.70;8.33;;;-7.00;99.90;;;;;;4114850;28;20217;-70
2022/12/18 01:23:25;;;;;;;28.13;10.17;;;-6.90;99.90;;;;;;4114841;28;20438;-73
2022/12/18 01:25:25;;;;;;;21.37;9.17;;;-6.90;99.90;;;;;;4114689;28;20426;-70
2022/12/18 01:27:26;;;;;;;20.57;9.33;;;-7.00;99.90;;;;;;4131255;28;20273;-71
2022/12/18 01:29:27;;;;;;;25.93;11.47;;;-6.90;99.90;;;;;;4114805;28;20191;-72
2022/12/18 01:31:31;;;;;;;40.63;11.23;;;-6.90;99.90;;;;;;4114566;28;20191;-71
2022/12/18 01:33:32;;;;;;;30.57;10.77;;;-6.80;99.90;;;;;;4114435;28;20226;-71
2022/12/18 01:35:32;;;;;;;20.57;9.80;;;-6.80;99.90;;;;;;4131894;28;20440;-70
2022/12/18 01:37:33;;;;;;;23.50;8.50;;;-6.70;99.90;;;;;;4131294;28;20209;-72
2022/12/18 01:39:34;;;;;;;30.83;10.70;;;-6.70;99.90;;;;;;4131873;28;20187;-71
2022/12/18 01:43:57;;;;;;;20.37;9.73;;;-6.70;99.90;;;;;;4116939;28;20226;-71
2022/12/18 01:45:59;;;;;;;23.90;10.57;;;-6.70;99.90;;;;;;4114457;28;20444;-71
2022/12/18 01:48:06;;;;;;;21.67;9.93;;;-6.70;99.90;;;;;;4131172;28;20477;-71
2022/12/18 01:50:15;;;;;;;17.97;8.27;;;-6.60;99.90;;;;;;4114358;28;20460;-72
2022/12/18 01:52:17;;;;;;;16.07;8.33;;;-6.50;99.90;;;;;;4131820;28;20426;-71
2022/12/18 01:54:18;;;;;;;20.50;9.47;;;-6.50;99.90;;;;;;4114543;28;20438;-71
2022/12/18 01:56:20;;;;;;;21.50;9.73;;;-6.50;99.90;;;;;;4131453;28;20452;-71
2022/12/18 01:58:55;;;;;;;21.10;9.20;;;-6.60;99.90;;;;;;4098246;29;20243;-71
2022/12/18 02:00:55;;;;;;;23.13;9.17;;;-6.60;99.90;;;;;;4131613;28;20555;-70
2022/12/18 02:02:57;;;;;;;24.20;10.13;;;-6.60;99.90;;;;;;4114201;28;21347;-71
2022/12/18 02:04:58;;;;;;;21.63;10.40;;;-6.50;99.90;;;;;;4131528;28;20571;-70
2022/12/18 02:07:34;;;;;;;23.17;9.67;;;-6.50;99.90;;;;;;4113448;28;20447;-71
2022/12/18 02:10:14;;;;;;;24.33;9.47;;;-6.50;99.90;;;;;;4130123;28;20417;-71
2022/12/18 02:12:35;;;;;;;24.80;10.07;;;-6.40;99.90;;;;;;4102075;28;20450;-71
2022/12/18 02:14:55;;;;;;;24.13;9.20;;;-6.40;99.90;;;;;;4082158;29;20878;-71
2022/12/18 02:17:25;;;;;;;20.90;8.40;;;-6.50;99.90;;;;;;4081509;29;20463;-70
2022/12/18 02:19:39;;;;;;;23.53;9.60;;;-6.60;99.90;;;;;;4097941;29;20415;-71
2022/12/18 02:22:28;;;;;;;24.90;10.07;;;-6.60;99.90;;;;;;4097619;29;20478;-71
2022/12/18 02:24:48;;;;;;;20.50;8.90;;;-6.60;99.90;;;;;;4097224;28;20412;-72
2022/12/18 02:26:55;;;;;;;20.47;8.43;;;-6.50;99.90;;;;;;4097098;29;20881;-71
2022/12/18 02:29:12;;;;;;;23.63;9.63;;;-6.60;99.90;;;;;;4097856;29;20416;-70
2022/12/18 02:31:28;;;;;;;28.03;10.60;;;-6.60;99.90;;;;;;4097760;28;20435;-71
2022/12/18 02:33:31;;;;;;;29.43;10.40;;;-6.60;99.90;;;;;;4113460;28;20442;-71
2022/12/18 02:35:34;;;;;;;22.83;9.30;;;-6.70;99.90;;;;;;4081670;29;20445;-71
2022/12/18 02:37:36;;;;;;;53.10;8.67;;;-6.60;99.90;;;;;;4096839;29;20514;-73
2022/12/18 02:39:41;;;;;;;25.43;10.90;;;-6.50;99.90;;;;;;4097543;29;20450;-71
2022/12/18 02:41:42;;;;;;;22.30;9.50;;;-6.60;99.90;;;;;;4097793;29;20550;-71
2022/12/18 02:43:50;;;;;;;23.20;10.03;;;-6.50;99.90;;;;;;4097391;29;20431;-71
2022/12/18 02:45:56;;;;;;;26.90;10.83;;;-6.60;99.90;;;;;;4097604;28;20219;-70
2022/12/18 02:47:57;;;;;;;20.63;10.53;;;-6.60;99.90;;;;;;4097184;29;20886;-71
2022/12/18 02:50:04;;;;;;;20.63;9.23;;;-6.60;99.90;;;;;;4114758;28;20496;-71
2022/12/18 02:52:19;;;;;;;26.73;10.23;;;-6.60;99.90;;;;;;4097605;29;20183;-71
2022/12/18 02:54:48;;;;;;;23.47;9.73;;;-6.60;99.90;;;;;;4114618;28;20406;-71
2022/12/18 02:56:55;;;;;;;25.60;9.93;;;-6.40;99.90;;;;;;4097008;29;20436;-71
2022/12/18 02:59:13;;;;;;;23.23;8.83;;;-6.40;99.90;;;;;;4113736;28;20441;-72
2022/12/18 03:01:20;;;;;;;25.20;10.97;;;-6.30;99.90;;;;;;4097375;29;20485;-70
2022/12/18 03:03:36;;;;;;;25.37;9.40;;;-6.40;99.90;;;;;;4097685;29;20509;-70
2022/12/18 03:05:47;;;;;;;23.23;9.87;;;-6.30;99.90;;;;;;4081377;29;20938;-71
2022/12/18 03:08:15;;;;;;;26.13;10.13;;;-6.40;99.90;;;;;;4096611;29;20961;-71
2022/12/18 03:10:24;;;;;;;20.90;9.40;;;-6.40;99.90;;;;;;4114218;28;21025;-71
2022/12/18 03:12:32;;;;;;;16.83;7.77;;;-6.40;99.90;;;;;;4097081;29;20430;-69
2022/12/18 03:14:35;;;;;;;22.77;9.47;;;-6.40;99.90;;;;;;4096896;29;20433;-70
2022/12/18 03:16:37;;;;;;;24.37;9.53;;;-6.50;99.90;;;;;;4113381;28;20430;-71
2022/12/18 03:18:47;;;;;;;21.20;9.50;;;-6.60;99.90;;;;;;4096822;28;20455;-70
2022/12/18 03:20:51;;;;;;;22.57;10.47;;;-6.50;99.90;;;;;;4095581;28;20942;-69
2022/12/18 03:22:59;;;;;;;28.07;12.37;;;-6.40;99.90;;;;;;4093657;29;20494;-71
2022/12/18 03:25:04;;;;;;;19.63;8.80;;;-6.50;99.90;;;;;;4112733;28;20492;-71
2022/12/18 03:27:11;;;;;;;25.57;9.77;;;-6.50;99.90;;;;;;4112134;28;20453;-71
2022/12/18 03:29:24;;;;;;;23.43;9.43;;;-6.50;99.90;;;;;;4112781;28;20418;-71
2022/12/18 03:31:28;;;;;;;21.20;8.80;;;-6.50;99.90;;;;;;4112710;28;20505;-71
2022/12/18 03:33:46;;;;;;;27.20;11.37;;;-6.50;99.90;;;;;;4096499;29;20435;-71
2022/12/18 03:35:47;;;;;;;23.27;9.83;;;-6.50;99.90;;;;;;4112392;28;20844;-71
2022/12/18 03:37:48;;;;;;;24.60;9.33;;;-6.60;99.90;;;;;;4112206;28;20489;-70
2022/12/18 03:39:49;;;;;;;18.20;8.07;;;-6.50;99.90;;;;;;4129582;28;20459;-70
2022/12/18 03:42:28;;;;;;;25.17;8.17;;;-6.50;99.90;;;;;;4112475;28;20470;-70
2022/12/18 03:45:01;;;;;;;21.30;9.30;;;-6.70;99.90;;;;;;4095441;28;20210;-70
2022/12/18 03:47:15;;;;;;;21.27;8.43;;;-6.70;99.90;;;;;;4128835;28;20547;-71
2022/12/18 03:49:26;;;;;;;23.27;9.73;;;-6.70;99.90;;;;;;4094682;28;20202;-69
2022/12/18 03:51:31;;;;;;;17.70;8.07;;;-6.80;99.90;;;;;;4091495;29;21013;-71
2022/12/18 03:53:53;;;;;;;23.37;9.80;;;-6.80;99.90;;;;;;4113382;28;20560;-71
2022/12/18 03:55:56;;;;;;;23.33;9.33;;;-6.80;99.90;;;;;;4080374;29;20432;-71
2022/12/18 03:57:58;;;;;;;25.93;10.77;;;-6.90;99.90;;;;;;4095701;29;20994;-71
2022/12/18 04:00:11;;;;;;;25.93;10.30;;;-6.90;99.90;;;;;;4096272;29;20427;-71
2022/12/18 04:02:11;;;;;;;29.40;10.73;;;-6.90;99.90;;;;;;4080342;29;20471;-71
2022/12/18 04:04:13;;;;;;;29.17;10.67;;;-6.90;99.90;;;;;;4096187;29;20463;-71
2022/12/18 04:06:16;;;;;;;20.57;8.43;;;-6.90;99.90;;;;;;4096413;29;20171;-71
2022/12/18 04:08:18;;;;;;;26.73;10.63;;;-6.90;99.90;;;;;;4098159;28;20827;-71
2022/12/18 04:10:19;;;;;;;24.08;10.35;;;-6.80;99.90;;;;;;4080381;29;20433;-71
2022/12/18 04:12:19;;;;;;;24.33;9.67;;;-6.80;99.90;;;;;;4096183;28;20188;-71
2022/12/18 04:14:20;;;;;;;37.73;11.47;;;-6.80;99.90;;;;;;4096013;29;20486;-71
2022/12/18 04:16:20;;;;;;;28.93;10.50;;;-6.80;99.90;;;;;;4095658;29;20187;-71
2022/12/18 04:18:21;;;;;;;25.63;10.87;;;-6.90;99.90;;;;;;4096209;29;20207;-71
2022/12/18 04:20:22;;;;;;;37.33;14.33;;;-6.90;99.90;;;;;;4113253;28;20640;-71
2022/12/18 04:22:22;;;;;;;28.03;11.40;;;-7.00;99.90;;;;;;4112867;28;20219;-71
2022/12/18 04:24:23;;;;;;;30.10;12.07;;;-6.80;99.90;;;;;;4112852;28;20179;-71
2022/12/18 04:26:24;;;;;;;26.17;9.60;;;-6.90;99.90;;;;;;4112395;28;20282;-71
2022/12/18 04:28:24;;;;;;;29.90;11.27;;;-6.80;99.90;;;;;;4112685;28;20233;-71
2022/12/18 04:30:25;;;;;;;23.40;8.97;;;-6.80;99.90;;;;;;4079679;29;20184;-71
2022/12/18 04:32:26;;;;;;;32.23;12.37;;;-6.80;99.90;;;;;;4095585;29;20184;-71
2022/12/18 04:34:26;;;;;;;29.87;11.73;;;-6.80;99.90;;;;;;4112787;28;20223;-72
2022/12/18 04:36:27;;;;;;;31.27;10.53;;;-6.70;99.90;;;;;;4112413;28;20673;-71
2022/12/18 04:38:28;;;;;;;26.60;11.13;;;-6.70;99.90;;;;;;4113398;28;20199;-71
2022/12/18 04:40:29;;;;;;;28.43;10.97;;;-6.80;99.90;;;;;;4096132;29;20219;-71
2022/12/18 04:42:29;;;;;;;27.30;8.80;;;-6.80;99.90;;;;;;4113498;28;20717;-71
2022/12/18 04:44:30;;;;;;;28.67;10.57;;;-6.80;99.90;;;;;;4113720;28;20258;-71
2022/12/18 04:46:31;;;;;;;25.20;11.50;;;-6.70;99.90;;;;;;4113410;28;20182;-71
2022/12/18 04:48:32;;;;;;;18.83;9.13;;;-6.70;99.90;;;;;;4097444;28;20200;-71
2022/12/18 04:50:33;;;;;;;33.20;11.50;;;-6.70;99.90;;;;;;4098536;29;20215;-71
2022/12/18 04:52:33;;;;;;;24.77;11.13;;;-6.70;99.90;;;;;;4082506;29;20436;-71
2022/12/18 04:54:34;;;;;;;27.73;11.87;;;-6.70;99.90;;;;;;4098588;29;20192;-71
2022/12/18 04:56:34;;;;;;;21.50;10.03;;;-6.70;99.90;;;;;;4097942;29;20188;-71
2022/12/18 04:58:37;;;;;;;25.10;10.03;;;-6.70;99.90;;;;;;4082717;29;20191;-71
2022/12/18 05:00:38;;;;;;;29.25;11.90;;;-6.70;99.90;;;;;;4101292;28;20661;-71
2022/12/18 05:02:38;;;;;;;22.23;9.50;;;-6.80;99.90;;;;;;4114282;28;20277;-71
2022/12/18 05:04:39;;;;;;;33.20;13.17;;;-6.80;99.90;;;;;;4114226;28;20662;-71
2022/12/18 05:06:40;;;;;;;25.50;10.93;;;-6.80;99.90;;;;;;4129678;28;20186;-71
2022/12/18 05:08:40;;;;;;;33.17;12.13;;;-6.90;99.90;;;;;;4131538;28;20190;-71
2022/12/18 05:10:41;;;;;;;27.07;11.23;;;-6.80;99.90;;;;;;4131677;28;20317;-71
2022/12/18 05:13:00;;;;;;;24.80;10.57;;;-6.90;99.90;;;;;;4114318;28;20693;-71
2022/12/18 05:15:00;;;;;;;26.17;11.57;;;-6.90;99.90;;;;;;4116732;28;20202;-71
2022/12/18 05:17:01;;;;;;;28.43;13.50;;;-6.90;99.90;;;;;;4130749;28;20479;-71
2022/12/18 05:19:02;;;;;;;25.07;11.37;;;-7.00;99.90;;;;;;4113980;28;20183;-71
2022/12/18 05:21:03;;;;;;;32.20;12.33;;;-6.90;99.90;;;;;;4131478;28;20300;-71
2022/12/18 05:23:04;;;;;;;27.67;10.00;;;-6.90;99.90;;;;;;4114267;28;20242;-71
2022/12/18 05:25:05;;;;;;;32.77;11.47;;;-7.00;99.90;;;;;;4131546;28;20520;-71
2022/12/18 05:27:05;;;;;;;34.15;11.63;;;-6.90;99.90;;;;;;4097378;29;20291;-71
2022/12/18 05:29:06;;;;;;;34.60;12.73;;;-6.80;99.90;;;;;;4114185;28;20189;-71
2022/12/18 05:31:07;;;;;;;29.07;10.43;;;-6.90;99.90;;;;;;4113973;28;20244;-71
2022/12/18 05:33:07;;;;;;;31.67;11.37;;;-7.00;99.90;;;;;;4114174;28;20183;-71
2022/12/18 05:35:10;;;;;;;26.63;10.33;;;-6.90;99.90;;;;;;4129113;28;20201;-71
2022/12/18 05:37:11;;;;;;;26.73;11.23;;;-6.90;99.90;;;;;;4111210;28;20222;-70
2022/12/18 05:39:12;;;;;;;22.43;10.20;;;-7.00;99.90;;;;;;4131059;28;20586;-71
2022/12/18 05:41:12;;;;;;;27.47;11.67;;;-6.90;99.90;;;;;;4113773;28;20277;-71
2022/12/18 05:43:13;;;;;;;34.33;11.43;;;-7.00;99.90;;;;;;4113820;28;20534;-71
2022/12/18 05:45:14;;;;;;;30.57;12.37;;;-6.90;99.90;;;;;;4113830;28;20294;-71
2022/12/18 05:47:14;;;;;;;30.10;11.90;;;-6.90;99.90;;;;;;4130472;28;20280;-72
2022/12/18 05:49:15;;;;;;;32.27;13.43;;;-6.90;99.90;;;;;;4131017;28;20182;-71
2022/12/18 05:51:18;;;;;;;32.23;12.03;;;-6.90;99.90;;;;;;4113745;28;20218;-71
2022/12/18 05:53:20;;;;;;;28.97;11.00;;;-6.90;99.90;;;;;;4129750;28;20254;-71
2022/12/18 05:55:21;;;;;;;28.90;11.33;;;-6.90;99.90;;;;;;4113715;28;20508;-71
2022/12/18 05:57:22;;;;;;;28.93;11.20;;;-6.90;99.90;;;;;;4113059;28;20446;-71
2022/12/18 05:59:22;;;;;;;27.93;12.63;;;-6.90;99.90;;;;;;4112616;28;20198;-71
2022/12/18 06:01:26;;;;;;;34.30;11.30;;;-6.90;99.90;;;;;;4114033;28;20215;-71
2022/12/18 06:03:26;;;;;;;38.03;13.27;;;-6.80;99.90;;;;;;4129559;28;20193;-71
2022/12/18 06:05:27;;;;;;;31.37;11.37;;;-7.00;99.90;;;;;;4130809;28;20429;-70
2022/12/18 06:07:28;;;;;;;18.67;8.40;;;-6.90;99.90;;;;;;4130175;28;20697;-71
2022/12/18 06:09:29;;;;;;;31.07;11.10;;;-6.90;99.90;;;;;;4130830;28;20429;-71
2022/12/18 06:11:30;;;;;;;31.67;11.80;;;-6.90;99.90;;;;;;4100726;28;20187;-71
2022/12/18 06:13:30;;;;;;;32.67;13.47;;;-6.90;99.90;;;;;;4097462;29;20184;-71
2022/12/18 06:15:31;;;;;;;25.03;8.73;;;-6.90;99.90;;;;;;4081326;29;20180;-71
2022/12/18 06:17:33;;;;;;;27.83;10.20;;;-6.80;99.90;;;;;;4113736;28;20639;-71
2022/12/18 06:19:34;;;;;;;27.65;9.90;;;-6.90;99.90;;;;;;4097625;29;20842;-71
2022/12/18 06:21:35;;;;;;;35.93;12.77;;;-6.90;99.90;;;;;;4114516;28;20245;-71
2022/12/18 06:23:36;;;;;;;31.37;11.47;;;-7.00;99.90;;;;;;4097364;29;20184;-71
2022/12/18 06:25:39;;;;;;;28.03;11.40;;;-6.90;99.90;;;;;;4097149;29;20549;-71
2022/12/18 06:27:40;;;;;;;24.27;10.77;;;-6.90;99.90;;;;;;4113903;28;20199;-70
2022/12/18 06:29:41;;;;;;;27.93;10.97;;;-6.90;99.90;;;;;;4097123;29;20538;-71
2022/12/18 06:31:41;;;;;;;20.73;8.93;;;-6.90;99.90;;;;;;4097030;29;20207;-71
2022/12/18 06:33:42;;;;;;;38.93;14.03;;;-6.90;99.90;;;;;;4114239;28;20191;-71
2022/12/18 06:35:43;;;;;;;36.47;11.93;;;-6.90;99.90;;;;;;4097020;29;20216;-71
2022/12/18 06:37:43;;;;;;;41.97;15.27;;;-6.80;99.90;;;;;;4096257;29;20641;-71
2022/12/18 06:39:44;;;;;;;26.87;10.03;;;-6.90;99.90;;;;;;4097034;29;20199;-71
2022/12/18 06:41:45;;;;;;;32.37;12.80;;;-6.80;99.90;;;;;;4080846;29;20216;-71
2022/12/18 06:43:45;;;;;;;31.07;12.63;;;-6.80;99.90;;;;;;4113987;28;20182;-71
2022/12/18 06:45:52;;;;;;;30.67;12.60;;;-6.80;99.90;;;;;;4096813;29;20192;-71
2022/12/18 06:47:53;;;;;;;28.27;10.80;;;-6.80;99.90;;;;;;4097004;28;20580;-71
2022/12/18 06:49:54;;;;;;;33.93;12.20;;;-7.00;99.90;;;;;;4114172;28;20480;-71
2022/12/18 06:51:54;;;;;;;31.77;11.57;;;-6.90;99.90;;;;;;4096870;29;20431;-71
2022/12/18 06:53:55;;;;;;;31.07;12.90;;;-6.80;99.90;;;;;;4096738;29;20196;-71
2022/12/18 06:56:07;;;;;;;36.40;13.20;;;-6.90;99.90;;;;;;4096776;29;20183;-71
2022/12/18 06:58:07;;;;;;;39.08;12.55;;;-6.90;99.90;;;;;;4096369;29;20287;-71
2022/12/18 07:00:09;;;;;;;22.40;9.50;;;-6.90;99.90;;;;;;4096425;29;20210;-71
2022/12/18 07:02:13;;;;;;;23.20;9.65;;;-6.90;99.90;;;;;;4096534;29;20251;-71
2022/12/18 07:04:13;;;;;;;30.23;11.77;;;-6.90;99.90;;;;;;4096494;29;20682;-71
2022/12/18 07:06:18;;;;;;;35.37;13.83;;;-6.90;99.90;;;;;;4096378;29;20443;-71
2022/12/18 07:08:19;;;;;;;33.97;13.20;;;-6.90;99.90;;;;;;4079908;29;20220;-71
2022/12/18 07:10:20;;;;;;;30.60;11.80;;;-7.00;99.90;;;;;;4096285;28;20998;-71
2022/12/18 07:12:20;;;;;;;31.93;12.70;;;-6.90;99.90;;;;;;4113832;28;20858;-71
2022/12/18 07:14:21;;;;;;;35.50;13.70;;;-6.90;99.90;;;;;;4080666;29;20188;-71
2022/12/18 07:16:22;;;;;;;30.07;11.40;;;-6.90;99.90;;;;;;4096030;29;20236;-71
2022/12/18 07:18:23;;;;;;;33.77;12.70;;;-6.90;99.90;;;;;;4106592;28;20209;-71
2022/12/18 07:20:23;;;;;;;31.37;13.13;;;-6.90;99.90;;;;;;4112404;28;20451;-71
2022/12/18 07:22:25;;;;;;;36.17;13.03;;;-6.90;99.90;;;;;;4112356;28;20215;-70
2022/12/18 07:24:26;;;;;;;26.17;11.33;;;-6.80;99.90;;;;;;4129605;28;20181;-71
2022/12/18 07:26:27;;;;;;;35.27;15.07;;;-6.80;99.90;;;;;;4111527;28;20421;-71
2022/12/18 07:28:27;;;;;;;34.17;13.17;;;-6.70;99.90;;;;;;4129754;28;20191;-72
2022/12/18 07:30:28;;;;;;;35.03;13.00;;;-6.70;99.90;;;;;;4112324;28;20189;-71
2022/12/18 07:32:30;;;;;;;37.00;14.63;;;-6.80;99.90;;;;;;4129546;28;20182;-71
2022/12/18 07:34:31;;;;;;;31.17;14.83;;;-6.70;99.90;;;;;;4112295;28;20213;-71
2022/12/18 07:36:31;;;;;;;27.73;11.23;;;-6.60;99.90;;;;;;4111610;28;20418;-71
2022/12/18 07:38:34;;;;;;;46.80;23.23;;;-6.50;99.90;;;;;;4128393;28;20198;-71
2022/12/18 07:40:35;;;;;;;31.60;14.10;;;-6.60;99.90;;;;;;4096193;29;20187;-71
2022/12/18 07:42:36;;;;;;;33.50;13.90;;;-6.60;99.90;;;;;;4129450;28;21347;-71
2022/12/18 07:44:37;;;;;;;29.77;13.57;;;-6.50;99.90;;;;;;4129347;28;20237;-71
2022/12/18 07:46:38;;;;;;;28.90;12.63;;;-6.60;99.90;;;;;;4128478;28;20858;-71
2022/12/18 07:48:40;;;;;;;35.17;13.60;;;-6.50;99.90;;;;;;4112466;28;20187;-71
2022/12/18 07:50:41;;;;;;;25.17;10.83;;;-6.60;99.90;;;;;;4112429;28;20211;-71
2022/12/18 07:52:41;;;;;;;33.97;14.53;;;-6.50;99.90;;;;;;4112289;28;20434;-71
2022/12/18 07:54:42;;;;;;;26.30;12.03;;;-6.50;99.90;;;;;;4129662;28;20190;-71
2022/12/18 07:56:43;;;;;;;38.23;13.87;;;-6.50;99.90;;;;;;4111661;28;20195;-71
2022/12/18 07:58:44;;;;;;;25.10;10.50;;;-6.50;99.90;;;;;;4096334;29;20191;-71
2022/12/18 08:00:44;;;;;;;37.73;14.50;;;-6.50;99.90;;;;;;4112079;28;20179;-71
2022/12/18 08:02:46;;;;;;;33.33;12.40;;;-6.50;99.90;;;;;;4128470;28;20422;-71
2022/12/18 08:04:47;;;;;;;34.07;13.57;;;-6.50;99.90;;;;;;4112225;28;20183;-71
2022/12/18 08:06:47;;;;;;;22.77;9.40;;;-6.40;99.90;;;;;;4111527;28;20469;-71
2022/12/18 08:08:48;;;;;;;34.07;13.27;;;-6.30;99.90;;;;;;4112093;28;20206;-70
2022/12/18 08:10:49;;;;;;;31.37;12.53;;;-6.30;99.90;;;;;;4112046;28;20191;-71
2022/12/18 08:12:51;;;;;;;27.60;11.47;;;-6.30;99.90;;;;;;4129522;28;20182;-71
2022/12/18 08:14:51;;;;;;;26.20;10.55;;;-6.30;99.90;;;;;;4128278;28;20178;-71
2022/12/18 08:16:52;;;;;;;22.10;11.07;;;-6.40;99.90;;;;;;4128498;28;20190;-71
2022/12/18 08:18:54;;;;;;;29.73;12.70;;;-6.30;99.90;;;;;;4111928;28;20194;-71
2022/12/18 08:20:55;;;;;;;28.57;9.53;;;-6.30;99.90;;;;;;4083353;29;20192;-71
2022/12/18 08:22:57;;;;;;;31.00;12.67;;;-6.30;99.90;;;;;;4114003;28;20430;-71
2022/12/18 08:24:58;;;;;;;32.70;12.03;;;-6.30;99.90;;;;;;4116369;28;20951;-71
2022/12/18 08:26:59;;;;;;;30.50;12.43;;;-6.10;99.90;;;;;;4098420;29;20455;-71
2022/12/18 08:29:00;;;;;;;36.03;13.17;;;-6.10;99.90;;;;;;4099310;29;20230;-71
2022/12/18 08:31:01;;;;;;;25.90;10.80;;;-6.10;99.90;;;;;;4083376;29;20184;-71
2022/12/18 08:33:02;;;;;;;27.33;11.60;;;-6.10;99.90;;;;;;4114974;28;20441;-71
2022/12/18 08:35:03;;;;;;;30.27;12.07;;;-6.00;99.90;;;;;;4099129;29;20180;-71
2022/12/18 08:37:04;;;;;;;23.13;10.43;;;-6.10;99.90;;;;;;4098159;28;20456;-71
2022/12/18 08:39:05;;;;;;;29.57;12.40;;;-6.00;99.90;;;;;;4116003;28;20972;-71
2022/12/18 08:41:11;;;;;;;33.20;13.80;;;-6.00;99.90;;;;;;4116088;28;20210;-71
2022/12/18 08:45:32;;;;;;;26.50;10.57;;;-6.00;99.90;;;;;;4101357;28;20431;-71
2022/12/18 08:47:32;;;;;;;31.60;12.07;;;-5.90;99.90;;;;;;4098284;29;20491;-71
2022/12/18 08:49:34;;;;;;;29.73;13.37;;;-5.70;99.90;;;;;;4098966;29;20640;-71
2022/12/18 08:51:35;;;;;;;21.73;10.57;;;-5.70;99.90;;;;;;4083102;29;20683;-71
2022/12/18 08:53:37;;;;;;;31.40;13.17;;;-5.60;99.90;;;;;;4116150;28;20572;-71
2022/12/18 08:55:38;;;;;;;28.37;12.30;;;-5.60;99.90;;;;;;4098538;29;20436;-70
2022/12/18 08:57:38;;;;;;;28.90;11.93;;;-5.50;99.90;;;;;;4115518;28;20453;-71
2022/12/18 08:59:39;;;;;;;30.70;11.03;;;-5.40;99.90;;;;;;4116099;28;20219;-71
2022/12/18 09:01:39;;;;;;;31.77;12.90;;;-5.30;99.90;;;;;;4115930;28;20213;-71
2022/12/18 09:03:40;;;;;;;28.33;12.13;;;-5.20;99.90;;;;;;4115885;28;20190;-71
2022/12/18 09:05:41;;;;;;;26.87;11.10;;;-5.10;99.90;;;;;;4115830;28;20178;-70
2022/12/18 09:07:42;;;;;;;28.13;11.90;;;-5.00;99.90;;;;;;4097721;29;20300;-70
2022/12/18 09:09:42;;;;;;;29.83;13.97;;;-5.00;99.90;;;;;;4115734;28;20176;-70
2022/12/18 09:11:43;;;;;;;28.27;12.77;;;-4.90;99.90;;;;;;4111913;28;20205;-71
2022/12/18 09:13:44;;;;;;;26.20;11.50;;;-4.90;99.90;;;;;;4131741;28;20200;-71
2022/12/18 09:15:48;;;;;;;31.60;14.80;;;-4.80;99.90;;;;;;4131558;28;20191;-71
2022/12/18 09:17:49;;;;;;;30.23;12.63;;;-4.70;99.90;;;;;;4113579;28;20706;-71
2022/12/18 09:19:50;;;;;;;31.43;13.37;;;-4.60;99.90;;;;;;4114190;28;21297;-71
2022/12/18 09:21:51;;;;;;;27.47;10.83;;;-4.60;99.90;;;;;;4114199;28;20519;-71
2022/12/18 09:23:55;;;;;;;28.63;14.07;;;-4.50;99.90;;;;;;4131677;28;20419;-71
2022/12/18 09:25:59;;;;;;;24.60;12.13;;;-4.40;99.90;;;;;;4098207;29;20213;-70
2022/12/18 09:28:00;;;;;;;29.30;14.03;;;-3.90;99.90;;;;;;4130933;28;20446;-71
2022/12/18 09:30:02;;;;;;;28.27;13.43;;;-3.50;99.90;;;;;;4114339;28;20453;-71
2022/12/18 09:32:03;;;;;;;26.67;13.83;;;-3.40;99.90;;;;;;4114031;28;20513;-71
2022/12/18 09:34:04;;;;;;;51.83;15.00;;;-3.10;99.90;;;;;;4131298;28;20429;-71
2022/12/18 09:36:07;;;;;;;24.47;11.97;;;-3.00;99.90;;;;;;4131382;28;20192;-71
2022/12/18 09:38:16;;;;;;;28.23;14.57;;;-2.80;99.90;;;;;;4113347;28;20238;-71
2022/12/18 09:40:21;;;;;;;28.70;12.83;;;-3.00;99.90;;;;;;4129995;28;20502;-71
2022/12/18 09:42:23;;;;;;;26.13;14.03;;;-3.00;99.90;;;;;;4129820;28;20469;-71
2022/12/18 09:44:36;;;;;;;29.13;13.27;;;-3.20;99.90;;;;;;4129749;28;20433;-72
2022/12/18 09:46:46;;;;;;;25.60;12.97;;;-2.90;99.90;;;;;;4096967;29;20442;-72
2022/12/18 09:48:51;;;;;;;28.30;13.87;;;-2.80;99.70;;;;;;4131110;28;20452;-71
2022/12/18 09:50:58;;;;;;;27.87;12.83;;;-2.60;99.90;;;;;;4129732;28;21187;-71
2022/12/18 09:53:06;;;;;;;26.33;12.90;;;-2.30;99.90;;;;;;4131074;28;20433;-71
2022/12/18 09:55:24;;;;;;;24.93;12.23;;;-2.30;97.20;;;;;;4129761;28;20920;-71
2022/12/18 09:57:25;;;;;;;27.60;13.43;;;-2.20;98.50;;;;;;4130341;28;21012;-71
2022/12/18 09:59:41;;;;;;;25.40;12.20;;;-2.00;97.90;;;;;;4113591;28;20435;-71
2022/12/18 10:01:42;;;;;;;24.20;12.50;;;-2.20;99.20;;;;;;4113706;28;20569;-71
2022/12/18 10:03:43;;;;;;;24.70;12.00;;;-1.90;98.20;;;;;;4130749;28;20420;-71
2022/12/18 10:06:13;;;;;;;20.43;11.90;;;-1.50;98.20;;;;;;4130924;28;20241;-71
2022/12/18 10:08:39;;;;;;;26.53;13.57;;;-0.80;99.00;;;;;;4129237;28;20368;-71
2022/12/18 10:10:50;;;;;;;25.63;13.17;;;-0.60;95.00;;;;;;4097450;29;20427;-71
2022/12/18 10:13:22;;;;;;;24.90;12.27;;;-0.50;96.40;;;;;;4097342;29;20510;-71
2022/12/18 10:15:35;;;;;;;29.83;13.97;;;0.10;96.70;;;;;;4130836;28;20410;-71
2022/12/18 10:17:42;;;;;;;26.37;13.67;;;0.40;91.00;;;;;;4112793;28;20450;-71
2022/12/18 10:19:59;;;;;;;25.13;13.10;;;0.80;91.90;;;;;;4113231;28;20429;-70
2022/12/18 10:22:44;;;;;;;24.87;13.10;;;0.60;91.10;;;;;;4097166;29;21008;-71
2022/12/18 10:25:20;;;;;;;24.50;13.07;;;0.80;92.80;;;;;;4090397;28;21051;-71
2022/12/18 10:27:26;;;;;;;26.03;13.10;;;0.80;91.00;;;;;;4128796;28;20448;-71
2022/12/18 10:29:27;;;;;;;22.30;12.03;;;0.80;92.90;;;;;;4106917;28;20447;-72
2022/12/18 10:31:28;;;;;;;25.53;12.17;;;1.00;89.70;;;;;;4114559;28;20497;-70
2022/12/18 10:33:31;;;;;;;23.40;13.17;;;1.30;86.70;;;;;;4097164;29;20224;-71
2022/12/18 10:35:32;;;;;;;26.10;13.13;;;0.90;86.40;;;;;;4097075;29;20193;-69
2022/12/18 10:37:33;;;;;;;26.60;13.13;;;0.80;91.00;;;;;;4096807;29;20485;-69